Time;durP1;ratioP1;P1;durP2;ratioP2;P2;SDS_P1;SDS_P2;PMS_P1;PMS_P2;Temp;Humidity;BMP_temperature;BMP_pressure;BME280_temperature;BME280_humidity;BME280_pressure;Samples;Min_cycle;Max_cycle;Signal;HPM_P1;HPM_P2
2022/06/06 00:00:08;;;;;;;;;7.33;7.33;;;;;21.11;58.79;101203.84;2106460;28;47926;-66
2022/06/06 00:01:10;;;;;;;;;7.00;7.00;;;;;21.11;58.92;101194.88;2106199;28;48277;-65
2022/06/06 00:02:11;;;;;;;;;6.00;6.00;;;;;21.11;58.61;101197.56;2105985;28;45768;-65
2022/06/06 00:03:14;;;;;;;;;7.00;4.75;;;;;21.10;58.65;101196.69;2094977;28;48037;-65
2022/06/06 00:04:16;;;;;;;;;8.75;8.75;;;;;21.09;58.32;101197.66;2095983;28;47714;-65
2022/06/06 00:05:17;;;;;;;;;7.25;7.25;;;;;21.08;58.85;101197.72;2103275;28;47553;-66
2022/06/06 00:06:19;;;;;;;;;7.00;7.00;;;;;21.07;58.49;101196.84;2104900;27;46327;-66
2022/06/06 00:07:20;;;;;;;;;8.75;8.75;;;;;21.07;58.96;101193.28;2105449;28;48098;-66
2022/06/06 00:08:21;;;;;;;;;8.00;7.25;;;;;21.08;59.15;101184.22;2104939;28;46980;-66
2022/06/06 00:09:21;;;;;;;;;7.00;7.00;;;;;21.09;58.61;101194.09;2099580;28;47421;-66
2022/06/06 00:10:22;;;;;;;;;8.67;8.33;;;;;21.10;58.70;101196.69;2097730;28;47990;-66
2022/06/06 00:11:22;;;;;;;;;9.00;9.00;;;;;21.11;58.63;101197.56;2102027;27;47291;-65
2022/06/06 00:12:24;;;;;;;;;8.00;7.00;;;;;21.11;59.39;101194.88;2102768;28;47261;-65
2022/06/06 00:13:25;;;;;;;;;9.75;9.75;;;;;21.11;59.22;101197.56;2101488;27;46700;-66
2022/06/06 00:14:26;;;;;;;;;9.00;9.00;;;;;21.12;59.27;101196.59;2102995;28;45922;-65
2022/06/06 00:15:27;;;;;;;;;6.50;6.50;;;;;21.12;58.87;101199.31;2104865;27;45842;-65
2022/06/06 00:16:28;;;;;;;;;7.00;7.00;;;;;21.14;59.28;101186.59;2101176;28;48031;-65
2022/06/06 00:17:28;;;;;;;;;5.00;4.00;;;;;21.15;58.91;101189.19;2101184;28;45384;-65
2022/06/06 00:18:29;;;;;;;;;9.00;9.00;;;;;21.16;59.02;101188.22;2099386;27;48226;-65
2022/06/06 00:19:30;;;;;;;;;6.00;5.67;;;;;21.17;59.25;101191.78;2099956;28;45060;-65
2022/06/06 00:20:31;;;;;;;;;8.00;8.00;;;;;21.15;58.94;101191.91;2096107;28;47306;-65
2022/06/06 00:21:34;;;;;;;;;6.50;6.00;;;;;21.12;59.06;101192.06;2093849;28;48014;-66
2022/06/06 00:22:34;;;;;;;;;7.75;7.50;;;;;21.12;59.10;101191.22;2097397;28;47728;-67
2022/06/06 00:23:36;;;;;;;;;4.33;4.33;;;;;21.10;59.45;101191.31;2100069;27;47497;-66
2022/06/06 00:24:36;;;;;;;;;7.50;7.50;;;;;21.10;58.89;101191.31;2094253;28;47727;-66
2022/06/06 00:25:37;;;;;;;;;8.00;8.00;;;;;21.09;59.10;101186.00;2096167;28;47375;-65
2022/06/06 00:26:38;;;;;;;;;8.33;7.67;;;;;21.09;59.21;101186.88;2104442;27;47129;-65
2022/06/06 00:27:39;;;;;;;;;9.75;9.00;;;;;21.10;59.63;101183.22;2100134;28;45189;-66
2022/06/06 00:28:44;;;;;;;;;8.67;8.67;;;;;21.11;59.17;101192.16;2098360;27;47948;-66
2022/06/06 00:29:45;;;;;;;;;9.00;9.00;;;;;21.09;59.00;101189.56;2103901;28;47575;-66
2022/06/06 00:30:45;;;;;;;;;7.67;7.67;;;;;21.09;59.37;101188.69;2102325;28;47369;-66
2022/06/06 00:35:43;;;;;;;;;6.50;6.50;;;;;20.98;59.16;101188.44;2097487;28;47256;-66
2022/06/06 00:36:44;;;;;;;;;8.00;8.00;;;;;20.96;58.92;101185.84;2099978;27;47998;-66
2022/06/06 00:37:45;;;;;;;;;8.00;7.33;;;;;20.95;59.17;101185.91;2100354;27;46129;-66
2022/06/06 00:38:45;;;;;;;;;11.33;10.33;;;;;20.95;59.61;101177.81;2097748;28;47290;-65
2022/06/06 00:39:47;;;;;;;;;8.00;8.00;;;;;20.95;59.19;101184.06;2100920;27;47906;-65
2022/06/06 00:40:49;;;;;;;;;10.25;9.75;;;;;20.93;59.13;101185.13;2100262;27;47266;-66
2022/06/06 00:41:51;;;;;;;;;12.75;12.75;;;;;20.94;58.92;101181.47;2096972;28;48180;-65
2022/06/06 00:42:52;;;;;;;;;7.50;7.50;;;;;20.93;59.48;101180.59;2099411;27;47756;-65
2022/06/06 00:44:08;;;;;;;;;11.67;10.00;;;;;20.92;59.04;101177.97;2099980;28;47579;-65
2022/06/06 00:45:24;;;;;;;;;9.50;9.50;;;;;20.91;58.94;101179.81;2097048;28;47394;-65
2022/06/06 00:46:26;;;;;;;;;11.75;11.75;;;;;20.90;59.28;101177.22;2102054;27;46667;-65
2022/06/06 00:47:28;;;;;;;;;12.00;11.00;;;;;20.88;59.29;101171.91;2100566;27;47207;-66
2022/06/06 00:48:38;;;;;;;;;11.75;10.50;;;;;20.88;59.49;101171.91;2103487;27;47802;-65
2022/06/06 00:49:46;;;;;;;;;14.50;14.00;;;;;20.85;59.23;101177.47;2097378;28;47833;-65
2022/06/06 00:51:05;;;;;;;;;14.75;14.00;;;;;20.82;59.24;101167.72;2097311;27;48244;-65
2022/06/06 00:52:11;;;;;;;;;12.00;11.25;;;;;20.79;59.40;101167.03;2104619;27;47663;-65
2022/06/06 00:53:15;;;;;;;;;12.50;11.00;;;;;20.79;59.34;101169.72;2101072;28;47585;-65
2022/06/06 00:54:16;;;;;;;;;14.00;13.25;;;;;20.79;59.56;101169.72;2101236;27;48044;-65
2022/06/06 00:55:29;;;;;;;;;13.00;11.75;;;;;20.79;59.30;101167.91;2098924;28;45893;-66
2022/06/06 00:56:33;;;;;;;;;11.50;11.25;;;;;20.80;59.11;101157.97;2098358;28;47714;-65
2022/06/06 00:57:40;;;;;;;;;13.25;12.75;;;;;20.81;59.53;101157.88;2097035;27;47784;-66
2022/06/06 00:58:42;;;;;;;;;7.25;7.25;;;;;20.84;58.91;101159.56;2097890;27;47740;-66
2022/06/06 00:59:44;;;;;;;;;13.50;13.50;;;;;20.83;58.67;101164.09;2097628;28;47961;-66
2022/06/06 01:00:46;;;;;;;;;17.75;15.00;;;;;20.84;59.23;101164.97;2097790;27;48136;-66
2022/06/06 01:01:49;;;;;;;;;16.25;14.50;;;;;20.82;58.76;101166.84;2100310;28;47510;-65
2022/06/06 01:02:54;;;;;;;;;12.50;12.25;;;;;20.80;59.36;101161.53;2094549;28;47663;-65
2022/06/06 01:03:57;;;;;;;;;16.00;14.75;;;;;20.78;58.66;101158.06;2095862;28;47774;-65
2022/06/06 01:05:01;;;;;;;;;13.00;13.00;;;;;20.76;58.52;101164.50;2102834;27;47130;-65
2022/06/06 01:06:02;;;;;;;;;13.00;12.00;;;;;20.75;58.50;101162.78;2096262;28;47821;-65
2022/06/06 01:07:04;;;;;;;;;15.00;15.00;;;;;20.75;59.04;101165.47;2096324;27;47275;-65
2022/06/06 01:08:07;;;;;;;;;18.00;15.00;;;;;20.73;58.75;101157.47;2095708;28;48003;-65
2022/06/06 01:09:09;;;;;;;;;16.00;16.00;;;;;20.74;58.79;101161.03;2095642;28;47566;-65
2022/06/06 01:10:10;;;;;;;;;17.75;17.00;;;;;20.74;58.96;101161.03;2099917;27;47696;-65
2022/06/06 01:11:11;;;;;;;;;13.33;13.33;;;;;20.74;58.69;101167.28;2095987;28;47429;-65
2022/06/06 01:12:15;;;;;;;;;14.00;14.00;;;;;20.72;58.32;101161.13;2096539;28;47623;-65
2022/06/06 01:13:18;;;;;;;;;15.00;14.25;;;;;20.72;58.65;101168.34;2097963;27;48116;-65
2022/06/06 01:14:23;;;;;;;;;14.25;13.50;;;;;20.69;58.85;101161.28;2101473;27;47848;-65
2022/06/06 01:15:29;;;;;;;;;14.00;14.00;;;;;20.68;58.41;101158.66;2104196;28;47444;-65
2022/06/06 01:16:43;;;;;;;;;16.00;16.00;;;;;20.66;57.96;101157.88;2103289;28;47755;-65
2022/06/06 01:18:08;;;;;;;;;16.00;13.00;;;;;20.63;58.80;101156.25;2104664;28;47495;-65
2022/06/06 01:19:30;;;;;;;;;13.50;13.50;;;;;20.62;58.76;101148.25;2104195;28;47907;-65
2022/06/06 01:20:44;;;;;;;;;14.75;14.00;;;;;20.62;59.00;101149.13;2098599;27;47463;-65
2022/06/06 01:22:04;;;;;;;;;13.75;13.75;;;;;20.61;58.55;101151.91;2095872;28;47879;-65
2022/06/06 01:23:16;;;;;;;;;14.50;13.50;;;;;20.61;58.58;101150.06;2096216;28;48071;-65
2022/06/06 01:24:29;;;;;;;;;13.25;12.75;;;;;20.63;59.07;101155.38;2104316;28;47224;-65
2022/06/06 01:26:06;;;;;;;;;18.50;14.50;;;;;20.63;58.96;101153.56;2104258;28;48221;-66
2022/06/06 01:27:31;;;;;;;;;14.75;14.25;;;;;20.63;58.97;101153.56;2104140;28;47929;-65
2022/06/06 01:29:14;;;;;;;;;15.25;14.50;;;;;20.64;58.45;101151.72;2103981;28;47826;-66
2022/06/06 01:30:19;;;;;;;;;13.75;13.25;;;;;20.65;58.95;101150.75;2078095;28;47848;-65
2022/06/06 01:31:27;;;;;;;;;16.50;15.75;;;;;20.65;58.99;101151.63;2077145;28;46509;-66
2022/06/06 01:32:34;;;;;;;;;15.75;15.50;;;;;20.66;58.65;101144.41;2074965;28;47565;-65
2022/06/06 01:33:54;;;;;;;;;15.75;14.75;;;;;20.68;58.60;101153.28;2076841;28;48100;-65
2022/06/06 01:34:55;;;;;;;;;15.75;14.25;;;;;20.67;58.33;101155.09;2065430;28;47614;-65
2022/06/06 01:36:00;;;;;;;;;15.25;14.50;;;;;20.68;58.45;101150.56;2069390;28;47291;-65
2022/06/06 01:37:02;;;;;;;;;19.75;18.25;;;;;20.67;58.57;101152.41;2077902;28;47233;-65
2022/06/06 01:38:03;;;;;;;;;17.25;16.00;;;;;20.66;58.91;101153.38;2077003;28;48164;-65
2022/06/06 01:39:07;;;;;;;;;15.75;14.00;;;;;20.66;58.40;101147.09;2078585;28;47217;-65
2022/06/06 01:40:11;;;;;;;;;13.00;13.00;;;;;20.66;58.40;101152.50;2071041;28;47271;-67
2022/06/06 01:41:18;;;;;;;;;17.00;16.50;;;;;20.65;58.25;101151.63;2069819;28;47873;-67
2022/06/06 01:42:35;;;;;;;;;15.75;15.75;;;;;20.66;58.84;101152.50;2070170;28;48059;-67
2022/06/06 01:43:45;;;;;;;;;14.50;13.50;;;;;20.65;58.25;101148.06;2072568;28;47279;-67
2022/06/06 01:44:49;;;;;;;;;12.50;11.75;;;;;20.65;58.86;101148.06;2072720;28;47555;-66
2022/06/06 01:46:08;;;;;;;;;9.75;9.75;;;;;20.64;58.18;101149.91;2070932;28;47526;-65
2022/06/06 01:47:17;;;;;;;;;11.25;10.50;;;;;20.65;58.03;101145.38;2078201;28;47776;-65
2022/06/06 01:48:23;;;;;;;;;6.50;6.50;;;;;20.65;58.43;101148.06;2073443;28;48541;-65
2022/06/06 01:49:25;;;;;;;;;8.25;7.75;;;;;20.65;58.04;101151.63;2074244;28;48320;-65
2022/06/06 01:50:26;;;;;;;;;11.25;11.00;;;;;20.65;58.39;101148.94;2070175;28;48192;-65
2022/06/06 01:51:30;;;;;;;;;8.00;8.00;;;;;20.64;58.26;101149.91;2070232;28;47342;-65
2022/06/06 01:52:50;;;;;;;;;6.75;6.75;;;;;20.63;57.76;101150.84;2076277;28;47839;-64
2022/06/06 01:53:52;;;;;;;;;11.50;10.50;;;;;20.63;57.82;101152.69;2085347;28;47635;-65
2022/06/06 01:54:57;;;;;;;;;12.00;11.00;;;;;20.62;58.16;101149.13;2078399;28;46727;-64
2022/06/06 01:55:57;;;;;;;;;11.00;11.00;;;;;20.62;58.14;101154.50;2073306;28;47804;-64
2022/06/06 01:57:00;;;;;;;;;6.00;6.00;;;;;20.61;58.40;101150.06;2070023;28;47536;-64
2022/06/06 01:58:06;;;;;;;;;10.25;10.25;;;;;20.61;58.04;101152.78;2078275;28;48028;-65
2022/06/06 01:59:06;;;;;;;;;9.00;7.75;;;;;20.61;57.94;101147.38;2074403;28;47303;-64
2022/06/06 02:00:07;;;;;;;;;11.33;10.00;;;;;20.61;57.76;101146.50;2073485;28;47300;-64
2022/06/06 02:01:07;;;;;;;;;10.00;9.00;;;;;20.60;58.12;101142.94;2078032;28;47055;-65
2022/06/06 02:02:09;;;;;;;;;9.00;9.00;;;;;20.60;58.32;101133.97;2075437;28;47606;-65
2022/06/06 02:03:09;;;;;;;;;8.25;8.25;;;;;20.59;58.10;101138.50;2070275;28;48428;-64
2022/06/06 02:04:10;;;;;;;;;9.67;7.00;;;;;20.58;57.48;101139.44;2069896;28;47589;-65
2022/06/06 02:05:12;;;;;;;;;7.67;7.67;;;;;20.58;58.08;101136.75;2069756;28;47899;-64
2022/06/06 02:06:13;;;;;;;;;7.50;5.50;;;;;20.58;57.29;101139.44;2080418;28;47608;-65
2022/06/06 02:07:14;;;;;;;;;8.33;7.33;;;;;20.56;57.49;101136.84;2099478;27;47745;-65
2022/06/06 02:08:15;;;;;;;;;6.00;6.00;;;;;20.56;57.43;101135.97;2086776;28;46559;-65
2022/06/06 02:09:16;;;;;;;;;5.75;5.75;;;;;20.56;57.56;101130.56;2086987;28;47711;-65
2022/06/06 02:10:17;;;;;;;;;6.33;6.33;;;;;20.56;57.04;101138.66;2087692;28;47543;-64
2022/06/06 02:11:18;;;;;;;;;6.25;5.00;;;;;20.56;57.33;101138.66;2093134;28;48118;-64
2022/06/06 02:12:20;;;;;;;;;5.67;5.67;;;;;20.56;56.90;101144.06;2097140;28;48026;-64
2022/06/06 02:13:21;;;;;;;;;5.50;5.00;;;;;20.54;56.64;101133.34;2096939;28;47638;-65
2022/06/06 02:14:22;;;;;;;;;5.33;5.00;;;;;20.54;57.23;101137.88;2098849;28;48199;-64
2022/06/06 02:15:24;;;;;;;;;4.67;4.67;;;;;20.53;57.09;101136.13;2097314;28;47543;-65
2022/06/06 02:16:25;;;;;;;;;7.75;6.25;;;;;20.52;56.98;101137.97;2097344;28;47545;-65
2022/06/06 02:17:25;;;;;;;;;6.67;5.00;;;;;20.51;57.24;101141.63;2097485;27;48165;-65
2022/06/06 02:18:26;;;;;;;;;4.67;4.67;;;;;20.50;56.65;101144.41;2097054;28;47630;-65
2022/06/06 02:19:26;;;;;;;;;4.33;4.33;;;;;20.50;57.04;101141.72;2097067;28;47932;-64
2022/06/06 02:20:31;;;;;;;;;4.00;4.00;;;;;20.48;56.79;101135.53;2104523;28;47988;-65
2022/06/06 02:21:32;;;;;;;;;4.75;4.75;;;;;20.47;56.83;101134.69;2102467;27;48036;-65
2022/06/06 02:22:33;;;;;;;;;4.00;4.00;;;;;20.46;56.69;101132.94;2097204;28;48018;-65
2022/06/06 02:23:33;;;;;;;;;4.67;4.33;;;;;20.46;56.14;101134.78;2097239;28;45852;-65
2022/06/06 02:24:34;;;;;;;;;6.00;4.00;;;;;20.44;56.66;101134.81;2096203;28;48251;-65
2022/06/06 02:25:36;;;;;;;;;7.67;6.67;;;;;20.44;56.20;101128.56;2096021;28;47713;-64
2022/06/06 02:26:37;;;;;;;;;5.00;5.00;;;;;20.42;56.71;101134.03;2093533;28;47422;-64
2022/06/06 02:27:38;;;;;;;;;5.33;4.00;;;;;20.41;56.51;101132.28;2093886;28;47701;-65
2022/06/06 02:28:38;;;;;;;;;6.00;6.00;;;;;20.40;56.67;101130.53;2096223;28;47259;-65
2022/06/06 02:29:39;;;;;;;;;7.00;5.00;;;;;20.39;56.54;101134.19;2097310;28;47125;-65
2022/06/06 02:30:39;;;;;;;;;5.00;5.00;;;;;20.39;56.45;101133.31;2097150;28;48021;-64
2022/06/06 02:31:40;;;;;;;;;4.00;4.00;;;;;20.39;56.52;101136.88;2096078;28;47897;-64
2022/06/06 02:32:41;;;;;;;;;6.00;4.67;;;;;20.39;56.38;101136.00;2093839;28;47296;-64
2022/06/06 02:33:42;;;;;;;;;4.00;4.00;;;;;20.38;56.62;101135.16;2105376;28;47664;-64
2022/06/06 02:34:42;;;;;;;;;5.67;5.67;;;;;20.38;56.82;101137.84;2104604;28;47528;-64
2022/06/06 02:35:43;;;;;;;;;4.33;4.00;;;;;20.38;56.58;101135.16;2105422;28;46880;-65
2022/06/06 02:36:43;;;;;;;;;4.00;4.00;;;;;20.37;56.71;101135.25;2095167;28;48314;-64
2022/06/06 02:37:46;;;;;;;;;7.33;6.00;;;;;20.37;56.38;101127.16;2094253;28;47634;-64
2022/06/06 02:38:46;;;;;;;;;4.75;4.75;;;;;20.37;56.48;101132.53;2097214;28;47564;-64
2022/06/06 02:39:47;;;;;;;;;4.00;4.00;;;;;20.35;56.01;101131.75;2095541;28;47665;-64
2022/06/06 02:40:47;;;;;;;;;5.00;4.33;;;;;20.33;56.34;101133.66;2096737;28;47645;-64
2022/06/06 02:41:48;;;;;;;;;4.67;4.33;;;;;20.32;56.69;101132.78;2096783;28;47993;-64
2022/06/06 02:42:49;;;;;;;;;4.33;3.33;;;;;20.29;56.66;101133.81;2100960;28;47960;-64
2022/06/06 02:43:49;;;;;;;;;5.33;5.00;;;;;20.29;56.42;101133.81;2105491;27;47020;-65
2022/06/06 02:44:49;;;;;;;;;8.33;7.33;;;;;20.28;56.40;101133.91;2095617;27;47520;-65
2022/06/06 02:45:50;;;;;;;;;6.00;6.00;;;;;20.27;56.70;101140.25;2097003;28;47707;-65
2022/06/06 02:46:50;;;;;;;;;5.33;5.33;;;;;20.27;56.51;101134.88;2097135;28;47483;-64
2022/06/06 02:47:57;;;;;;;;;2.33;2.33;;;;;20.26;56.90;101142.09;2098521;28;47952;-64
2022/06/06 02:48:57;;;;;;;;;4.75;4.75;;;;;20.25;56.26;101134.97;2092531;28;47543;-64
2022/06/06 02:49:57;;;;;;;;;5.33;5.33;;;;;20.26;56.42;101135.81;2094078;28;47703;-64
2022/06/06 02:50:59;;;;;;;;;5.33;5.33;;;;;20.25;56.55;101137.66;2091338;28;48069;-64
2022/06/06 02:52:04;;;;;;;;;7.00;7.00;;;;;20.24;56.84;101138.63;2097243;28;47697;-65
2022/06/06 02:53:05;;;;;;;;;5.50;5.50;;;;;20.24;56.38;101132.34;2105659;28;47564;-64
2022/06/06 02:54:06;;;;;;;;;6.75;6.00;;;;;20.23;56.46;101136.88;2098027;27;47612;-64
2022/06/06 02:55:10;;;;;;;;;7.00;5.67;;;;;20.21;56.68;101130.69;2094741;28;47104;-66
2022/06/06 02:56:11;;;;;;;;;5.00;5.00;;;;;20.21;56.49;101136.09;2096636;28;48086;-65
2022/06/06 02:57:11;;;;;;;;;5.67;4.33;;;;;20.19;56.75;101132.59;2096752;28;47803;-65
2022/06/06 02:58:12;;;;;;;;;6.00;6.00;;;;;20.20;56.67;101136.16;2100060;28;47208;-65
2022/06/06 02:59:18;;;;;;;;;6.00;6.00;;;;;20.20;56.51;101136.16;2100061;28;47587;-65
2022/06/06 03:00:23;;;;;;;;;6.00;6.00;;;;;20.17;56.70;101134.50;2103420;28;48006;-65
2022/06/06 03:01:23;;;;;;;;;7.25;7.25;;;;;20.16;57.02;101140.84;2096804;28;48884;-65
2022/06/06 03:02:24;;;;;;;;;5.67;5.67;;;;;20.15;56.58;101136.41;2096953;28;47427;-66
2022/06/06 03:03:24;;;;;;;;;5.00;5.00;;;;;20.14;56.78;101133.81;2097042;28;47490;-65
2022/06/06 03:04:24;;;;;;;;;5.67;4.33;;;;;20.13;56.80;101132.94;2105417;27;47494;-65
2022/06/06 03:05:47;;;;;;;;;5.00;5.00;;;;;20.10;56.73;101133.13;2101724;28;48187;-64
2022/06/06 03:07:25;;;;;;;;;5.25;5.25;;;;;20.07;56.53;101130.56;2097265;28;47236;-65
2022/06/06 03:08:41;;;;;;;;;5.00;5.00;;;;;20.06;56.25;101131.53;2094329;28;47993;-65
2022/06/06 03:09:59;;;;;;;;;5.00;5.00;;;;;20.05;56.63;101129.78;2105236;27;47479;-64
2022/06/06 03:11:18;;;;;;;;;6.00;6.00;;;;;20.03;56.90;101128.13;2105753;27;47364;-65
2022/06/06 03:12:21;;;;;;;;;5.50;5.50;;;;;20.01;56.14;101125.53;2105060;27;47652;-65
2022/06/06 03:13:40;;;;;;;;;4.50;4.50;;;;;19.98;55.95;101131.97;2105014;27;47670;-65
2022/06/06 03:14:59;;;;;;;;;3.75;3.00;;;;;19.98;55.96;101137.34;2107021;27;47446;-65
2022/06/06 03:21:32;;;;;;;;;2.75;2.75;;;;;19.88;55.77;101143.31;2110103;27;47758;-65
2022/06/06 03:23:02;;;;;;;;;3.25;3.25;;;;;19.86;55.42;101140.69;2104564;27;47475;-63
2022/06/06 03:24:14;;;;;;;;;3.00;3.00;;;;;19.87;55.68;101144.25;2101012;28;47893;-66
2022/06/06 03:25:17;;;;;;;;;3.75;3.75;;;;;19.85;55.72;101144.34;2104203;27;47813;-65
2022/06/06 03:26:50;;;;;;;;;4.00;4.00;;;;;19.84;55.68;101139.91;2102956;27;47918;-65
2022/06/06 03:28:05;;;;;;;;;3.50;3.00;;;;;19.83;55.35;101143.56;2098848;28;47549;-65
2022/06/06 03:29:27;;;;;;;;;4.00;4.00;;;;;19.81;54.72;101141.88;2105076;27;47727;-65
2022/06/06 03:31:09;;;;;;;;;2.75;2.75;;;;;19.81;55.10;101144.56;2101256;28;47594;-65
2022/06/06 03:32:36;;;;;;;;;4.50;4.50;;;;;19.79;55.12;101141.97;2099544;27;47760;-65
2022/06/06 03:34:02;;;;;;;;;3.00;3.00;;;;;19.79;55.38;101146.47;2102743;28;47929;-66
2022/06/06 03:35:39;;;;;;;;;4.00;3.50;;;;;19.78;54.79;101142.03;2098963;27;47510;-66
2022/06/06 03:36:54;;;;;;;;;4.00;4.00;;;;;19.77;54.68;101143.00;2069168;28;47862;-64
2022/06/06 03:38:15;;;;;;;;;4.00;4.00;;;;;19.76;54.69;101143.97;2067477;28;47980;-65
2022/06/06 03:39:18;;;;;;;;;3.00;3.00;;;;;19.75;54.76;101139.53;2065871;28;47796;-63
2022/06/06 03:40:31;;;;;;;;;3.50;3.50;;;;;19.75;54.64;101144.91;2065269;28;47344;-63
2022/06/06 03:41:39;;;;;;;;;4.50;3.00;;;;;19.73;55.02;101145.00;2065988;28;47457;-64
2022/06/06 03:42:48;;;;;;;;;2.75;2.75;;;;;19.73;54.63;101145.00;2071873;28;47413;-65
2022/06/06 03:44:16;;;;;;;;;1.75;1.75;;;;;19.73;54.39;101147.69;2070667;28;47303;-65
2022/06/06 03:45:28;;;;;;;;;5.00;4.00;;;;;19.74;54.50;101151.25;2066786;28;47693;-64
2022/06/06 03:46:44;;;;;;;;;2.25;2.25;;;;;19.71;54.11;101149.59;2072980;28;47494;-65
2022/06/06 03:48:32;;;;;;;;;3.25;3.25;;;;;19.71;54.08;101151.41;2062733;28;48032;-64
2022/06/06 03:50:20;;;;;;;;;2.25;2.25;;;;;19.68;54.29;101144.34;2046260;28;47961;-64
2022/06/06 03:52:00;;;;;;;;;3.00;3.00;;;;;19.67;54.03;101146.16;2046271;28;47965;-65
2022/06/06 03:53:15;;;;;;;;;2.25;2.25;;;;;19.65;54.13;101148.06;2045661;28;48141;-65
2022/06/06 03:54:24;;;;;;;;;2.00;2.00;;;;;19.65;53.60;101147.22;2038316;28;47926;-64
2022/06/06 03:55:41;;;;;;;;;2.00;2.00;;;;;19.64;54.19;101142.78;2035944;28;47996;-64
2022/06/06 03:56:41;;;;;;;;;3.00;2.25;;;;;19.62;54.12;101142.00;2041850;28;48019;-63
2022/06/06 03:57:45;;;;;;;;;2.67;2.67;;;;;19.63;54.56;101147.28;2046469;28;47914;-64
2022/06/06 03:58:46;;;;;;;;;3.00;2.75;;;;;19.61;54.36;101146.50;2046359;28;48150;-64
2022/06/06 03:59:52;;;;;;;;;4.75;4.75;;;;;19.62;54.39;101152.75;2046495;28;47907;-64
2022/06/06 04:00:57;;;;;;;;;4.50;4.25;;;;;19.63;54.36;101150.00;2046104;28;47710;-64
2022/06/06 04:02:01;;;;;;;;;2.25;2.25;;;;;19.63;54.38;101154.50;2046453;28;47685;-64
2022/06/06 04:03:05;;;;;;;;;3.75;2.75;;;;;19.62;53.94;101150.06;2039294;28;47352;-64
2022/06/06 04:04:06;;;;;;;;;3.50;2.50;;;;;19.62;54.46;101150.06;2038706;28;48002;-64
2022/06/06 04:05:15;;;;;;;;;2.50;2.25;;;;;19.63;54.83;101149.13;2046558;28;47794;-64
2022/06/06 04:06:17;;;;;;;;;1.50;1.50;;;;;19.63;54.31;101152.69;2046274;28;47835;-64
2022/06/06 04:07:18;;;;;;;;;2.00;2.00;;;;;19.63;54.11;101155.38;2045989;28;47643;-64
2022/06/06 04:08:19;;;;;;;;;4.00;2.00;;;;;19.65;54.22;101155.28;2045931;28;47462;-64
2022/06/06 04:09:19;;;;;;;;;1.00;1.00;;;;;19.64;54.37;101154.41;2046937;28;47604;-64
2022/06/06 04:10:24;;;;;;;;;1.00;1.00;;;;;19.64;54.31;101159.81;2046560;28;47963;-64
2022/06/06 04:11:27;;;;;;;;;2.75;2.75;;;;;19.65;54.29;101157.97;2046051;28;47678;-64
2022/06/06 04:13:00;;;;;;;;;1.75;1.75;;;;;19.65;54.31;101161.53;2046390;28;47894;-64
2022/06/06 04:14:14;;;;;;;;;2.00;2.00;;;;;19.64;54.26;101165.19;2036948;28;47383;-64
2022/06/06 04:15:20;;;;;;;;;1.50;1.50;;;;;19.64;53.85;101158.94;2038021;28;48020;-65
2022/06/06 04:16:33;;;;;;;;;1.75;1.75;;;;;19.63;54.11;101163.44;2043095;28;48067;-65
2022/06/06 04:17:43;;;;;;;;;2.00;1.75;;;;;19.62;53.61;101164.41;2045951;28;47738;-63
2022/06/06 04:18:58;;;;;;;;;1.00;1.00;;;;;19.59;53.90;101164.56;2046436;28;47917;-63
2022/06/06 04:20:20;;;;;;;;;1.50;1.50;;;;;19.59;53.64;101163.69;2045714;28;48524;-63
2022/06/06 04:21:33;;;;;;;;;3.00;3.00;;;;;19.58;53.58;101164.66;2054038;28;47697;-64
2022/06/06 04:23:03;;;;;;;;;2.00;2.00;;;;;19.57;53.81;101166.47;2054331;28;47701;-63
2022/06/06 04:24:24;;;;;;;;;2.25;2.25;;;;;19.57;54.12;101165.59;2054029;28;47437;-64
2022/06/06 04:25:46;;;;;;;;;1.25;1.25;;;;;19.56;53.77;101164.72;2054086;28;47933;-63
2022/06/06 04:26:46;;;;;;;;;2.50;1.75;;;;;19.59;53.96;101177.16;2053584;28;47762;-65
2022/06/06 04:28:10;;;;;;;;;1.00;1.00;;;;;19.58;53.90;101172.72;2053815;28;48443;-64
2022/06/06 04:29:33;;;;;;;;;2.75;2.75;;;;;19.58;53.65;101175.41;2062687;28;47845;-64
2022/06/06 04:31:05;;;;;;;;;2.00;2.00;;;;;19.59;54.02;101174.47;2059280;28;47927;-65
2022/06/06 04:32:14;;;;;;;;;2.00;2.00;;;;;19.57;53.99;101171.88;2058908;28;47991;-64
2022/06/06 04:33:25;;;;;;;;;1.50;1.50;;;;;19.58;54.03;101173.59;2054152;28;48112;-65
2022/06/06 04:34:56;;;;;;;;;3.25;3.00;;;;;19.58;53.75;101168.22;2060748;28;47726;-65
2022/06/06 04:36:14;;;;;;;;;0.75;0.75;;;;;19.58;53.82;101168.22;2061080;28;48183;-65
2022/06/06 04:37:32;;;;;;;;;1.25;1.25;;;;;19.58;53.87;101172.72;2062339;28;48224;-64
2022/06/06 04:38:36;;;;;;;;;2.00;2.00;;;;;19.58;53.87;101172.72;2059561;28;47436;-62
2022/06/06 04:40:02;;;;;;;;;2.75;2.75;;;;;19.58;54.36;101167.34;2054550;28;47831;-64
2022/06/06 04:41:09;;;;;;;;;1.75;1.75;;;;;19.57;54.38;101160.22;2054418;28;47480;-65
2022/06/06 04:42:16;;;;;;;;;1.50;1.50;;;;;19.59;54.11;101158.31;2054326;28;47905;-64
2022/06/06 04:44:00;;;;;;;;;2.75;2.75;;;;;19.60;54.56;101168.13;2054312;28;48097;-64
2022/06/06 04:45:16;;;;;;;;;1.25;1.25;;;;;19.59;53.67;101169.09;2054047;28;48001;-64
2022/06/06 04:46:30;;;;;;;;;2.25;2.25;;;;;19.60;54.11;101171.69;2054200;28;47702;-64
2022/06/06 04:47:35;;;;;;;;;1.75;1.75;;;;;19.59;54.03;101172.66;2054563;28;47632;-65
2022/06/06 04:48:37;;;;;;;;;2.00;2.00;;;;;19.61;53.92;101167.19;2053897;28;48166;-65
2022/06/06 04:49:38;;;;;;;;;3.00;1.25;;;;;19.60;54.21;101166.31;2054192;28;47576;-64
2022/06/06 04:50:43;;;;;;;;;2.25;2.25;;;;;19.62;54.45;101161.72;2054308;28;47238;-64
2022/06/06 04:51:45;;;;;;;;;1.75;1.75;;;;;19.62;54.09;101156.31;2062555;28;47376;-63
2022/06/06 04:53:07;;;;;;;;;1.50;1.50;;;;;19.63;54.02;101163.44;2086422;28;48237;-64
2022/06/06 04:54:13;;;;;;;;;3.00;3.00;;;;;19.63;54.23;101163.44;2077971;28;47982;-63
2022/06/06 04:55:14;;;;;;;;;0.75;0.50;;;;;19.64;54.16;101161.63;2078852;28;48140;-63
2022/06/06 04:56:16;;;;;;;;;3.00;3.00;;;;;19.65;54.78;101164.22;2076973;28;47834;-63
2022/06/06 04:57:19;;;;;;;;;3.00;3.00;;;;;19.66;54.66;101171.34;2078006;28;47026;-63
2022/06/06 04:58:21;;;;;;;;;1.00;1.00;;;;;19.67;54.79;101161.47;2078576;28;47575;-63
2022/06/06 04:59:24;;;;;;;;;4.00;4.00;;;;;19.69;54.74;101164.94;2078369;28;47612;-63
2022/06/06 05:00:24;;;;;;;;;2.75;2.75;;;;;19.69;54.37;101164.94;2076210;28;47681;-63
2022/06/06 05:01:26;;;;;;;;;3.00;3.00;;;;;19.71;54.10;101162.19;2077980;28;47675;-63
2022/06/06 05:02:26;;;;;;;;;2.00;2.00;;;;;19.71;54.17;101159.50;2078602;28;47668;-64
2022/06/06 05:03:27;;;;;;;;;2.00;2.00;;;;;19.71;54.32;101162.19;2061575;28;48009;-63
2022/06/06 05:04:27;;;;;;;;;2.00;2.00;;;;;19.70;54.35;101161.31;2053947;28;47839;-63
2022/06/06 05:05:54;;;;;;;;;3.00;2.33;;;;;19.71;54.08;101160.38;2070308;28;47778;-63
2022/06/06 05:07:30;;;;;;;;;2.50;2.50;;;;;19.71;54.22;101165.75;2039923;28;48004;-63
2022/06/06 05:09:11;;;;;;;;;1.75;1.75;;;;;19.71;54.23;101159.50;2045619;28;47767;-63
2022/06/06 05:10:21;;;;;;;;;1.50;1.50;;;;;19.70;54.39;101166.72;2041645;28;48267;-63
2022/06/06 05:11:34;;;;;;;;;2.00;1.00;;;;;19.69;54.25;101167.63;2038422;28;47989;-63
2022/06/06 05:12:56;;;;;;;;;2.00;2.00;;;;;19.69;54.34;101175.72;2045691;28;47357;-63
2022/06/06 05:14:15;;;;;;;;;4.00;4.00;;;;;19.68;54.12;101171.28;2039192;28;48347;-63
2022/06/06 05:15:32;;;;;;;;;2.25;2.25;;;;;19.67;54.21;101165.03;2043642;28;48079;-63
2022/06/06 05:16:44;;;;;;;;;2.25;2.00;;;;;19.66;54.19;101171.34;2045527;28;47730;-64
2022/06/06 05:18:16;;;;;;;;;2.00;2.00;;;;;19.65;54.08;101166.94;2045887;28;47602;-63
2022/06/06 05:19:36;;;;;;;;;2.50;2.50;;;;;19.66;54.31;101170.50;2037772;28;47262;-63
2022/06/06 05:21:17;;;;;;;;;2.25;2.25;;;;;19.65;54.60;101174.13;2037817;28;47580;-64
2022/06/06 05:22:51;;;;;;;;;2.00;2.00;;;;;19.63;54.69;101168.84;2022542;29;47869;-64
2022/06/06 05:24:05;;;;;;;;;2.25;2.25;;;;;19.61;54.24;101170.75;2022352;29;47709;-64
2022/06/06 05:25:35;;;;;;;;;3.25;2.00;;;;;19.60;54.04;101170.81;2029832;28;47719;-63